createdAt,value
2019-02-22T00:02:23.632Z,57.90
2019-02-22T00:04:54.700Z,49.85
2019-02-22T00:07:25.774Z,28.50
2019-02-22T00:09:57.815Z,37.30
2019-02-22T00:12:28.884Z,32.40
2019-02-22T00:14:59.917Z,33.80
2019-02-22T00:17:30.992Z,33.23
2019-02-22T00:20:02.134Z,37.65
2019-02-22T00:22:33.200Z,47.65
2019-02-22T00:25:04.336Z,35.78
2019-02-22T00:27:35.404Z,36.73
2019-02-22T00:30:08.733Z,32.13
2019-02-22T00:32:42.349Z,29.27
2019-02-22T00:35:12.659Z,32.50
2019-02-22T00:37:43.762Z,29.60
2019-02-22T00:40:14.804Z,28.52
2019-02-22T00:42:45.867Z,33.80
2019-02-22T00:45:16.941Z,38.55
2019-02-22T00:47:48.151Z,37.13
2019-02-22T00:50:19.291Z,50.98
2019-02-22T00:52:50.368Z,41.98
2019-02-22T00:55:21.488Z,48.05
2019-02-22T00:57:52.586Z,49.00
2019-02-22T01:00:23.722Z,45.28
2019-02-22T01:02:54.754Z,46.15
2019-02-22T01:05:25.825Z,56.23
2019-02-22T01:07:56.859Z,45.52
2019-02-22T01:10:31.304Z,49.18
2019-02-22T01:13:00.681Z,68.05
2019-02-22T01:15:31.743Z,48.78
2019-02-22T01:18:02.778Z,54.40
2019-02-22T01:20:33.840Z,48.45
2019-02-22T01:23:04.873Z,41.50
2019-02-22T01:25:35.937Z,50.35
2019-02-22T01:28:06.970Z,55.23
2019-02-22T01:30:38.037Z,47.75
2019-02-22T01:33:09.070Z,46.20
2019-02-22T01:35:40.157Z,43.15
2019-02-22T01:38:11.252Z,44.40
2019-02-22T01:40:43.909Z,43.13
2019-02-22T01:43:15.047Z,42.15
2019-02-22T01:45:46.111Z,42.00
2019-02-22T01:48:17.144Z,36.90
2019-02-22T01:50:48.209Z,38.80
2019-02-22T01:53:19.265Z,47.78
2019-02-22T01:55:50.402Z,56.48
2019-02-22T01:58:21.449Z,40.88
2019-02-22T02:00:52.511Z,46.65
2019-02-22T02:03:23.622Z,47.85
2019-02-22T02:05:54.761Z,50.48
2019-02-22T02:08:25.844Z,37.93
2019-02-22T02:10:56.945Z,45.48
2019-02-22T02:13:28.019Z,35.20
2019-02-22T02:15:59.046Z,60.58
2019-02-22T02:18:30.120Z,43.00
2019-02-22T02:21:02.052Z,57.73
2019-02-22T02:23:33.122Z,60.52
2019-02-22T02:26:05.548Z,57.75
2019-02-22T02:28:36.607Z,67.15
2019-02-22T02:31:07.646Z,68.52
2019-02-22T02:33:38.726Z,65.70
2019-02-22T02:36:09.775Z,59.38
2019-02-22T02:38:40.846Z,79.10
2019-02-22T02:41:11.911Z,78.10
2019-02-22T02:43:42.976Z,81.22
2019-02-22T02:46:14.047Z,89.28
2019-02-22T02:48:45.150Z,96.67
2019-02-22T02:51:16.218Z,81.45
2019-02-22T02:53:47.274Z,69.12
2019-02-22T02:56:18.410Z,68.78
2019-02-22T02:58:49.458Z,85.00
2019-02-22T03:01:20.536Z,68.80
2019-02-22T03:03:51.595Z,73.30
2019-02-22T03:06:36.138Z,71.00
2019-02-22T03:09:09.656Z,70.22
2019-02-22T03:11:40.929Z,70.05
2019-02-22T03:14:13.078Z,69.85
2019-02-22T03:16:44.199Z,75.57
2019-02-22T03:19:15.239Z,70.70
2019-02-22T03:21:46.310Z,68.40
2019-02-22T03:24:17.350Z,61.42
2019-02-22T03:26:48.424Z,69.50
2019-02-22T03:29:19.533Z,83.33
2019-02-22T03:31:50.624Z,86.57
2019-02-22T03:34:21.690Z,86.17
2019-02-22T03:36:52.824Z,85.97
2019-02-22T03:39:23.869Z,87.27
2019-02-22T03:41:54.944Z,100.02
2019-02-22T03:44:26.020Z,98.42
2019-02-22T03:46:57.063Z,97.37
2019-02-22T03:49:28.141Z,105.80
2019-02-22T03:52:00.917Z,109.37
2019-02-22T03:54:32.059Z,107.22
2019-02-22T03:57:03.132Z,118.05
2019-02-22T03:59:34.207Z,155.25
2019-02-22T04:02:05.274Z,143.05
2019-02-22T04:04:36.406Z,143.30
2019-02-22T04:07:07.460Z,153.45
2019-02-22T04:09:38.530Z,139.88
2019-02-22T04:12:09.659Z,131.78
2019-02-22T04:14:40.735Z,129.45
2019-02-22T04:17:11.785Z,157.60
2019-02-22T04:19:42.866Z,153.95
2019-02-22T04:22:13.915Z,149.47
2019-02-22T04:24:44.985Z,151.85
2019-02-22T04:27:16.039Z,139.80
2019-02-22T04:29:47.121Z,151.40
2019-02-22T04:32:18.193Z,140.18
2019-02-22T04:34:49.242Z,128.07
2019-02-22T04:37:20.677Z,122.58
2019-02-22T04:39:51.717Z,134.65
2019-02-22T04:42:22.796Z,131.35
2019-02-22T04:44:53.847Z,137.90
2019-02-22T04:47:24.926Z,112.97
2019-02-22T04:49:55.974Z,120.13
2019-02-22T04:52:27.065Z,130.80
2019-02-22T04:54:58.183Z,129.10
2019-02-22T04:57:29.262Z,107.83
2019-02-22T05:00:00.365Z,136.92
2019-02-22T05:02:31.461Z,112.22
2019-02-22T05:05:02.505Z,115.08
2019-02-22T05:07:33.580Z,102.87
2019-02-22T05:10:05.127Z,134.32
2019-02-22T05:12:36.262Z,122.67
2019-02-22T05:15:12.631Z,123.35
2019-02-22T05:17:40.584Z,122.05
2019-02-22T05:20:11.633Z,122.90
2019-02-22T05:22:42.715Z,106.52
2019-02-22T05:25:13.792Z,114.70
2019-02-22T05:27:44.839Z,127.32
2019-02-22T05:30:15.927Z,142.28
2019-02-22T05:32:46.972Z,98.90
2019-02-22T05:35:18.046Z,126.97
2019-02-22T05:37:49.094Z,143.47
2019-02-22T05:40:20.274Z,131.40
2019-02-22T05:42:51.387Z,127.58
2019-02-22T05:45:22.484Z,118.95
2019-02-22T05:47:53.525Z,131.18
2019-02-22T05:50:24.607Z,141.15
2019-02-22T05:52:55.646Z,128.50
2019-02-22T05:55:26.734Z,132.37
2019-02-22T05:57:57.777Z,137.75
2019-02-22T06:00:28.875Z,113.08
2019-02-22T06:03:00.019Z,125.07
2019-02-22T06:05:31.140Z,104.60
2019-02-22T06:08:02.191Z,129.90
2019-02-22T06:10:33.269Z,140.35
2019-02-22T06:13:04.351Z,129.95
2019-02-22T06:15:35.431Z,130.55
2019-02-22T06:18:06.504Z,133.90
2019-02-22T06:20:37.556Z,127.40
2019-02-22T06:23:08.685Z,136.95
2019-02-22T06:25:39.734Z,115.40
2019-02-22T06:28:10.804Z,124.62
2019-02-22T06:30:41.855Z,143.57
2019-02-22T06:33:12.928Z,121.05
2019-02-22T06:35:44.008Z,141.85
2019-02-22T06:38:15.124Z,130.10
2019-02-22T06:40:48.238Z,138.80
2019-02-22T06:43:19.425Z,145.62
2019-02-22T06:45:51.473Z,174.47
2019-02-22T06:48:22.645Z,162.90
2019-02-22T06:50:53.760Z,135.18
2019-02-22T06:53:24.854Z,151.65
2019-02-22T06:55:55.909Z,151.15
2019-02-22T06:58:26.982Z,145.47
2019-02-22T07:00:58.034Z,152.30
2019-02-22T07:03:29.111Z,135.00
2019-02-22T07:06:00.162Z,141.00
2019-02-22T07:08:31.249Z,141.12
2019-02-22T07:11:03.934Z,157.27
2019-02-22T07:13:35.055Z,144.28
2019-02-22T07:16:07.360Z,134.80
2019-02-22T07:18:38.406Z,143.90
2019-02-22T07:21:09.482Z,136.47
2019-02-22T07:23:40.537Z,151.80
2019-02-22T07:26:11.610Z,135.68
2019-02-22T07:28:42.662Z,137.47
2019-02-22T07:31:13.735Z,128.72
2019-02-22T07:33:44.789Z,106.30
2019-02-22T07:36:15.863Z,124.62
2019-02-22T07:38:48.061Z,123.95
2019-02-22T07:41:19.175Z,132.50
2019-02-22T07:43:50.217Z,115.30
2019-02-22T07:46:21.315Z,99.05
2019-02-22T07:48:52.373Z,85.92
2019-02-22T07:51:23.545Z,91.78
2019-02-22T07:53:54.592Z,98.27
2019-02-22T07:56:25.661Z,84.77
2019-02-22T07:58:56.733Z,76.47
2019-02-22T08:01:27.803Z,81.25
2019-02-22T08:03:58.877Z,90.03
2019-02-22T08:06:29.914Z,88.45
2019-02-22T08:09:00.985Z,91.67
2019-02-22T08:11:33.586Z,102.60
2019-02-22T08:14:04.671Z,97.90
2019-02-22T08:16:35.806Z,107.95
2019-02-22T08:19:06.974Z,106.00
2019-02-22T08:21:38.194Z,92.78
2019-02-22T08:24:09.278Z,85.77
2019-02-22T08:26:40.378Z,95.12
2019-02-22T08:29:11.444Z,92.12
2019-02-22T08:31:42.562Z,101.47
2019-02-22T08:34:13.642Z,105.43
2019-02-22T08:36:44.783Z,102.53
2019-02-22T08:39:15.858Z,97.67
2019-02-22T08:41:47.094Z,104.80
2019-02-22T08:44:18.264Z,102.40
2019-02-22T08:46:49.362Z,108.42
2019-02-22T08:49:20.437Z,89.58
2019-02-22T08:51:51.506Z,96.20
2019-02-22T08:54:22.555Z,95.07
2019-02-22T08:56:53.618Z,82.67
2019-02-22T08:59:24.668Z,101.35
2019-02-22T09:01:55.742Z,94.30
2019-02-22T09:04:26.791Z,100.70
2019-02-22T09:06:57.863Z,96.32
2019-02-22T09:09:28.910Z,86.22
2019-02-22T09:11:59.909Z,95.32
2019-02-22T09:14:30.950Z,97.42
2019-02-22T09:17:02.024Z,82.05
2019-02-22T09:19:33.067Z,95.97
2019-02-22T09:22:04.144Z,81.17
2019-02-22T09:24:35.182Z,76.35
2019-02-22T09:27:06.256Z,77.70
2019-02-22T09:29:37.295Z,78.87
2019-02-22T09:32:08.360Z,65.85
2019-02-22T09:34:39.400Z,65.05
2019-02-22T09:37:10.439Z,61.48
2019-02-22T09:39:41.509Z,72.40
2019-02-22T09:42:12.593Z,77.30
2019-02-22T09:44:43.700Z,68.62
2019-02-22T09:47:14.746Z,73.25
2019-02-22T09:49:45.822Z,67.70
2019-02-22T09:52:17.860Z,68.57
2019-02-22T09:54:48.956Z,56.92
2019-02-22T09:57:20.043Z,68.05
2019-02-22T09:59:51.119Z,66.50
2019-02-22T10:02:22.161Z,68.20
2019-02-22T10:04:55.425Z,68.37
2019-02-22T10:07:25.993Z,73.22
2019-02-22T10:09:57.079Z,63.58
2019-02-22T10:12:28.108Z,75.97
2019-02-22T10:14:59.189Z,74.35
2019-02-22T10:17:30.233Z,80.15
2019-02-22T10:20:01.856Z,72.55
2019-02-22T10:22:34.312Z,61.02
2019-02-22T10:25:07.083Z,63.00
2019-02-22T10:27:38.158Z,73.67
2019-02-22T10:30:12.666Z,68.33
2019-02-22T10:32:43.711Z,71.87
2019-02-22T10:35:14.784Z,73.70
2019-02-22T10:37:45.822Z,62.88
2019-02-22T10:40:16.893Z,64.60
2019-02-22T10:42:48.083Z,70.25
2019-02-22T10:45:19.193Z,63.55
2019-02-22T10:47:50.230Z,68.12
2019-02-22T10:50:21.328Z,63.70
2019-02-22T10:53:01.816Z,63.40
2019-02-22T10:55:25.147Z,60.28
2019-02-22T10:57:56.176Z,66.25
2019-02-22T11:00:27.251Z,61.63
2019-02-22T11:02:58.292Z,58.60
2019-02-22T11:05:29.363Z,66.85
2019-02-22T11:08:00.396Z,63.38
2019-02-22T11:10:31.481Z,58.33
2019-02-22T11:13:02.547Z,57.65
2019-02-22T11:15:33.595Z,57.33
2019-02-22T11:18:04.676Z,59.77
2019-02-22T11:20:35.711Z,61.95
2019-02-22T11:23:06.784Z,52.35
2019-02-22T11:25:37.824Z,52.27
2019-02-22T11:28:08.894Z,51.40
2019-02-22T11:30:39.931Z,53.15
2019-02-22T11:33:11.008Z,52.35
2019-02-22T11:35:42.059Z,51.95
2019-02-22T11:38:13.144Z,48.17
2019-02-22T11:40:44.188Z,48.48
2019-02-22T11:43:15.254Z,46.77
2019-02-22T11:45:46.345Z,47.80
2019-02-22T11:48:17.415Z,58.78
2019-02-22T11:50:48.459Z,46.18
2019-02-22T11:53:19.544Z,50.73
2019-02-22T11:55:50.617Z,51.85
2019-02-22T11:58:21.595Z,40.43
2019-02-22T12:00:52.668Z,41.80
2019-02-22T12:03:24.898Z,45.43
2019-02-22T12:05:56.366Z,42.95
2019-02-22T12:08:27.416Z,44.80
2019-02-22T12:10:58.488Z,43.28
2019-02-22T12:13:31.872Z,39.50
2019-02-22T12:16:02.309Z,37.58
2019-02-22T12:18:33.365Z,40.08
2019-02-22T12:21:04.448Z,38.38
2019-02-22T12:23:35.535Z,38.38
2019-02-22T12:26:06.628Z,33.02
2019-02-22T12:28:37.718Z,29.52
2019-02-22T12:31:08.954Z,35.88
2019-02-22T12:33:40.006Z,37.88
2019-02-22T12:36:11.086Z,33.83
2019-02-22T12:38:42.236Z,35.98
2019-02-22T12:41:13.397Z,29.07
2019-02-22T12:43:44.452Z,33.60
2019-02-22T12:46:15.530Z,32.53
2019-02-22T12:48:46.614Z,38.25
2019-02-22T12:51:17.660Z,34.92
2019-02-22T12:53:48.741Z,36.93
2019-02-22T12:56:21.514Z,32.65
2019-02-22T12:58:52.559Z,29.85
2019-02-22T13:01:24.640Z,30.30
2019-02-22T13:03:55.756Z,28.57
2019-02-22T13:06:26.805Z,26.80
2019-02-22T13:08:57.886Z,24.80
2019-02-22T13:11:28.927Z,29.52
2019-02-22T13:14:00.007Z,29.35
2019-02-22T13:16:31.050Z,31.60
2019-02-22T13:19:02.122Z,31.50
2019-02-22T13:21:33.161Z,32.90
2019-02-22T13:24:04.291Z,35.38
2019-02-22T13:26:35.340Z,30.70
2019-02-22T13:29:06.416Z,34.33
2019-02-22T13:31:37.464Z,30.88
2019-02-22T13:34:08.536Z,32.08
2019-02-22T13:36:39.551Z,40.83
2019-02-22T13:39:10.597Z,35.95
2019-02-22T13:41:41.777Z,37.15
2019-02-22T13:44:12.822Z,32.08
2019-02-22T13:46:43.911Z,40.60
2019-02-22T13:49:15.958Z,28.62
2019-02-22T13:51:47.038Z,34.15
2019-02-22T13:54:18.099Z,31.42
2019-02-22T13:56:49.235Z,25.57
2019-02-22T13:59:20.319Z,23.57
2019-02-22T14:01:51.404Z,28.05
2019-02-22T14:04:22.442Z,33.58
2019-02-22T14:06:53.519Z,32.98
2019-02-22T14:09:24.561Z,28.87
2019-02-22T14:11:55.572Z,29.70
2019-02-22T14:14:26.608Z,27.75
2019-02-22T14:16:57.694Z,30.15
2019-02-22T14:19:28.819Z,30.17
2019-02-22T14:21:59.924Z,37.03
2019-02-22T14:24:31.976Z,30.50
2019-02-22T14:27:03.064Z,31.90
2019-02-22T14:29:34.142Z,34.43
2019-02-22T14:32:05.187Z,29.63
2019-02-22T14:34:36.282Z,30.23
2019-02-22T14:37:07.366Z,25.62
2019-02-22T14:39:38.972Z,24.60
2019-02-22T14:42:10.108Z,25.00
2019-02-22T14:44:41.189Z,26.65
2019-02-22T14:47:12.248Z,23.77
2019-02-22T14:49:43.323Z,24.23
2019-02-22T14:52:14.366Z,27.67
2019-02-22T14:54:45.449Z,22.52
2019-02-22T14:57:16.427Z,24.27
2019-02-22T14:59:47.528Z,23.20
2019-02-22T15:02:18.638Z,23.10
2019-02-22T15:04:49.714Z,32.38
2019-02-22T15:07:20.758Z,28.65
2019-02-22T15:09:51.837Z,34.23
2019-02-22T15:12:23.010Z,23.50
2019-02-22T15:14:54.091Z,27.22
2019-02-22T15:17:30.625Z,28.15
2019-02-22T15:20:01.711Z,25.43
2019-02-22T15:22:33.785Z,29.57
2019-02-22T15:25:10.319Z,30.30
2019-02-22T15:27:41.398Z,23.00
2019-02-22T15:30:16.851Z,31.15
2019-02-22T15:32:47.920Z,21.85
2019-02-22T15:35:19.469Z,18.82
2019-02-22T15:37:50.593Z,24.27
2019-02-22T15:40:21.649Z,21.33
2019-02-22T15:42:52.828Z,18.10
2019-02-22T15:45:24.945Z,30.57
2019-02-22T15:47:56.025Z,18.80
2019-02-22T15:50:27.135Z,23.47
2019-02-22T15:52:58.305Z,26.50
2019-02-22T15:55:29.344Z,24.85
2019-02-22T15:58:00.449Z,24.80
2019-02-22T16:00:34.492Z,23.10
2019-02-22T16:03:06.054Z,22.90
2019-02-22T16:05:38.693Z,28.62
2019-02-22T16:08:09.757Z,28.23
2019-02-22T16:10:40.824Z,22.75
2019-02-22T16:13:11.867Z,25.12
2019-02-22T16:15:42.931Z,28.83
2019-02-22T16:18:14.002Z,29.63
2019-02-22T16:20:45.035Z,32.58
2019-02-22T16:23:16.107Z,37.73
2019-02-22T16:25:47.158Z,29.87
2019-02-22T16:28:18.221Z,39.03
2019-02-22T16:30:49.475Z,22.30
2019-02-22T16:33:20.539Z,33.90
2019-02-22T16:35:51.607Z,23.87
2019-02-22T16:38:22.679Z,26.40
2019-02-22T16:40:53.722Z,29.12
2019-02-22T16:43:24.783Z,21.07
2019-02-22T16:45:55.850Z,22.13
2019-02-22T16:48:26.988Z,22.20
2019-02-22T16:50:58.174Z,20.02
2019-02-22T16:53:29.235Z,13.18
2019-02-22T16:56:00.195Z,12.58
2019-02-22T16:58:31.256Z,12.63
2019-02-22T17:01:02.318Z,12.35
2019-02-22T17:03:33.502Z,13.53
2019-02-22T17:06:04.629Z,14.05
2019-02-22T17:08:35.729Z,20.92
2019-02-22T17:11:06.823Z,26.65
2019-02-22T17:13:37.903Z,65.00
2019-02-22T17:16:08.969Z,41.35
2019-02-22T17:18:40.045Z,19.25
2019-02-22T17:21:11.071Z,13.10
2019-02-22T17:23:42.145Z,9.58
2019-02-22T17:26:15.093Z,8.30
2019-02-22T17:28:46.153Z,9.58
2019-02-22T17:31:17.202Z,7.97
2019-02-22T17:33:48.221Z,6.75
2019-02-22T17:36:26.415Z,7.12
2019-02-22T17:38:52.048Z,7.53
2019-02-22T17:41:23.092Z,6.40
2019-02-22T17:43:54.145Z,13.08
2019-02-22T17:46:25.205Z,8.68
2019-02-22T17:48:56.261Z,10.10
2019-02-22T17:51:27.288Z,9.88
2019-02-22T17:53:58.368Z,10.95
2019-02-22T17:56:29.424Z,7.53
2019-02-22T17:59:01.484Z,11.20
2019-02-22T18:01:34.735Z,16.85
2019-02-22T18:04:05.916Z,10.30
2019-02-22T18:06:36.979Z,11.28
2019-02-22T18:09:08.200Z,9.93
2019-02-22T18:11:39.464Z,8.05
2019-02-22T18:14:10.499Z,9.80
2019-02-22T18:16:41.559Z,12.78
2019-02-22T18:19:12.590Z,10.82
2019-02-22T18:21:43.646Z,12.35
2019-02-22T18:24:14.674Z,11.70
2019-02-22T18:26:45.744Z,14.58
2019-02-22T18:29:16.770Z,16.10
2019-02-22T18:31:47.831Z,12.82
2019-02-22T18:34:18.862Z,23.42
2019-02-22T18:36:49.969Z,11.68
2019-02-22T18:39:20.993Z,18.82
2019-02-22T18:41:52.067Z,16.93
2019-02-22T18:44:23.193Z,12.37
2019-02-22T18:46:54.263Z,15.32
2019-02-22T18:49:25.328Z,15.72
2019-02-22T18:51:56.366Z,15.43
2019-02-22T18:54:27.455Z,16.93
2019-02-22T18:56:58.490Z,17.35
2019-02-22T18:59:29.551Z,15.72
2019-02-22T19:02:00.603Z,26.82
2019-02-22T19:04:31.751Z,15.88
2019-02-22T19:07:02.782Z,22.37
2019-02-22T19:09:33.855Z,26.75
2019-02-22T19:12:04.894Z,18.98
2019-02-22T19:14:35.987Z,66.57
2019-02-22T19:17:07.084Z,28.38
2019-02-22T19:19:38.170Z,36.40
2019-02-22T19:22:09.208Z,16.30
2019-02-22T19:24:41.278Z,17.48
2019-02-22T19:27:12.317Z,12.33
2019-02-22T19:29:43.371Z,13.40
2019-02-22T19:32:14.454Z,11.03
2019-02-22T19:34:45.516Z,9.70
2019-02-22T19:37:16.573Z,7.28
2019-02-22T19:39:47.595Z,9.35
2019-02-22T19:42:18.660Z,7.45
2019-02-22T19:44:49.678Z,9.03
2019-02-22T19:47:20.729Z,9.15
2019-02-22T19:49:51.766Z,8.38
2019-02-22T19:52:22.832Z,15.55
2019-02-22T19:54:53.853Z,8.65
2019-02-22T19:57:24.911Z,9.58
2019-02-22T19:59:55.932Z,8.35
2019-02-22T20:02:26.992Z,8.08
2019-02-22T20:04:58.017Z,7.20
2019-02-22T20:07:29.081Z,10.08
2019-02-22T20:10:00.357Z,7.72
2019-02-22T20:12:31.459Z,7.78
2019-02-22T20:15:02.484Z,8.23
2019-02-22T20:17:35.081Z,12.98
2019-02-22T20:20:10.534Z,11.20
2019-02-22T20:22:41.580Z,8.90
2019-02-22T20:25:12.643Z,12.03
2019-02-22T20:27:45.305Z,11.48
2019-02-22T20:30:20.706Z,10.08
2019-02-22T20:32:51.779Z,8.25
2019-02-22T20:35:28.437Z,9.65
2019-02-22T20:37:59.497Z,13.62
2019-02-22T20:40:30.531Z,14.63
2019-02-22T20:43:01.578Z,12.03
2019-02-22T20:45:32.701Z,11.68
2019-02-22T20:48:05.386Z,12.60
2019-02-22T20:50:37.683Z,14.33
2019-02-22T20:53:08.729Z,9.93
2019-02-22T20:55:39.824Z,11.28
2019-02-22T20:58:10.868Z,12.75
2019-02-22T21:00:42.028Z,13.18
2019-02-22T21:03:13.096Z,16.82
2019-02-22T21:05:44.122Z,19.23
2019-02-22T21:08:16.863Z,13.00
2019-02-22T21:10:48.049Z,11.75
2019-02-22T21:13:19.245Z,16.30
2019-02-22T21:15:50.358Z,11.00
2019-02-22T21:18:22.492Z,12.93
2019-02-22T21:20:56.564Z,13.20
2019-02-22T21:23:27.635Z,12.23
2019-02-22T21:25:58.664Z,12.23
2019-02-22T21:28:29.724Z,11.78
2019-02-22T21:31:00.785Z,16.00
2019-02-22T21:33:31.829Z,20.75
2019-02-22T21:36:03.068Z,14.73
2019-02-22T21:38:34.127Z,14.90
2019-02-22T21:41:05.189Z,11.10
2019-02-22T21:43:36.251Z,16.52
2019-02-22T21:46:07.308Z,14.03
2019-02-22T21:48:39.992Z,10.80
2019-02-22T21:51:11.118Z,14.78
2019-02-22T21:53:42.153Z,16.37
2019-02-22T21:56:13.218Z,15.45
2019-02-22T21:58:45.281Z,12.40
2019-02-22T22:01:16.318Z,15.72
2019-02-22T22:03:47.390Z,12.98
2019-02-22T22:06:18.443Z,13.13
2019-02-22T22:08:49.477Z,17.92
2019-02-22T22:11:20.583Z,12.65
2019-02-22T22:13:52.658Z,17.25
2019-02-22T22:16:23.693Z,13.10
2019-02-22T22:18:54.970Z,13.10
2019-02-22T22:21:26.489Z,17.40
2019-02-22T22:23:57.518Z,16.97
2019-02-22T22:26:28.590Z,15.90
2019-02-22T22:28:59.669Z,19.27
2019-02-22T22:31:30.706Z,16.67
2019-02-22T22:34:02.776Z,17.37
2019-02-22T22:36:33.848Z,15.98
2019-02-22T22:39:06.542Z,18.15
2019-02-22T22:41:37.767Z,18.80
2019-02-22T22:44:08.812Z,22.37
2019-02-22T22:46:39.898Z,21.95
2019-02-22T22:49:10.977Z,21.37
2019-02-22T22:51:42.033Z,20.02
2019-02-22T22:54:13.105Z,25.52
2019-02-22T22:56:44.190Z,31.97
2019-02-22T22:59:15.251Z,22.98
2019-02-22T23:01:46.334Z,22.02
2019-02-22T23:04:17.381Z,22.62
2019-02-22T23:06:48.503Z,26.12
2019-02-22T23:09:20.880Z,27.05
2019-02-22T23:11:52.068Z,23.27
2019-02-22T23:14:23.116Z,25.85
2019-02-22T23:16:54.218Z,26.97
2019-02-22T23:19:25.340Z,30.15
2019-02-22T23:21:56.611Z,29.75
2019-02-22T23:24:27.839Z,31.85
2019-02-22T23:26:58.870Z,32.93
2019-02-22T23:29:29.959Z,25.77
2019-02-22T23:32:01.098Z,27.85
2019-02-22T23:34:32.231Z,26.60
2019-02-22T23:37:03.300Z,25.15
2019-02-22T23:39:34.988Z,28.50
2019-02-22T23:42:06.037Z,27.10
2019-02-22T23:44:37.123Z,23.67
2019-02-22T23:47:08.163Z,23.27
2019-02-22T23:49:39.233Z,26.10
2019-02-22T23:52:10.352Z,29.87
2019-02-22T23:54:41.424Z,24.60
2019-02-22T23:57:12.471Z,23.27
2019-02-22T23:59:43.537Z,20.27
